sensor_id;sensor_type;location;lat;lon;timestamp;temperature;humidity
48666;DHT22;34452;50.796;4.994;2023-05-03T00:01:35;8.00;98.70
48666;DHT22;34452;50.796;4.994;2023-05-03T00:04:02;8.00;98.70
48666;DHT22;34452;50.796;4.994;2023-05-03T00:06:28;8.00;99.00
48666;DHT22;34452;50.796;4.994;2023-05-03T00:08:54;8.00;99.10
48666;DHT22;34452;50.796;4.994;2023-05-03T00:11:20;7.90;98.90
48666;DHT22;34452;50.796;4.994;2023-05-03T00:13:46;8.00;99.40
48666;DHT22;34452;50.796;4.994;2023-05-03T00:16:11;8.00;99.60
48666;DHT22;34452;50.796;4.994;2023-05-03T00:18:37;8.00;99.90
48666;DHT22;34452;50.796;4.994;2023-05-03T00:21:03;8.10;99.90
48666;DHT22;34452;50.796;4.994;2023-05-03T00:23:29;8.10;99.90
48666;DHT22;34452;50.796;4.994;2023-05-03T00:25:56;8.10;99.90
48666;DHT22;34452;50.796;4.994;2023-05-03T00:28:23;8.10;99.90
48666;DHT22;34452;50.796;4.994;2023-05-03T00:30:49;8.00;99.90
48666;DHT22;34452;50.796;4.994;2023-05-03T00:33:15;8.00;99.90
48666;DHT22;34452;50.796;4.994;2023-05-03T00:35:42;7.90;99.70
48666;DHT22;34452;50.796;4.994;2023-05-03T00:38:08;7.80;99.90
48666;DHT22;34452;50.796;4.994;2023-05-03T00:40:34;7.80;99.90
48666;DHT22;34452;50.796;4.994;2023-05-03T00:43:00;7.70;99.90
48666;DHT22;34452;50.796;4.994;2023-05-03T00:45:25;7.70;99.90
48666;DHT22;34452;50.796;4.994;2023-05-03T00:47:51;7.60;99.90
48666;DHT22;34452;50.796;4.994;2023-05-03T00:50:17;7.50;99.90
48666;DHT22;34452;50.796;4.994;2023-05-03T00:52:44;7.50;99.90
48666;DHT22;34452;50.796;4.994;2023-05-03T00:55:10;7.40;99.90
48666;DHT22;34452;50.796;4.994;2023-05-03T00:57:36;7.40;99.90
48666;DHT22;34452;50.796;4.994;2023-05-03T01:00:02;7.30;99.90
48666;DHT22;34452;50.796;4.994;2023-05-03T01:02:28;7.30;99.90
48666;DHT22;34452;50.796;4.994;2023-05-03T01:04:54;7.20;99.90
48666;DHT22;34452;50.796;4.994;2023-05-03T01:10:20;7.30;99.90
48666;DHT22;34452;50.796;4.994;2023-05-03T01:13:10;7.40;99.90
48666;DHT22;34452;50.796;4.994;2023-05-03T01:18:30;7.20;99.90
48666;DHT22;34452;50.796;4.994;2023-05-03T01:21:00;7.10;99.90
48666;DHT22;34452;50.796;4.994;2023-05-03T01:23:42;7.20;99.90
48666;DHT22;34452;50.796;4.994;2023-05-03T01:26:26;7.30;99.90
48666;DHT22;34452;50.796;4.994;2023-05-03T01:28:53;7.30;99.90
48666;DHT22;34452;50.796;4.994;2023-05-03T01:34:41;7.40;99.90
48666;DHT22;34452;50.796;4.994;2023-05-03T01:37:10;7.40;99.90
48666;DHT22;34452;50.796;4.994;2023-05-03T01:42:34;7.20;99.90
48666;DHT22;34452;50.796;4.994;2023-05-03T01:45:02;7.10;99.90
48666;DHT22;34452;50.796;4.994;2023-05-03T01:47:28;6.90;99.90
48666;DHT22;34452;50.796;4.994;2023-05-03T01:49:55;6.80;99.90
48666;DHT22;34452;50.796;4.994;2023-05-03T01:52:21;6.70;99.90
48666;DHT22;34452;50.796;4.994;2023-05-03T01:54:47;6.70;99.90
48666;DHT22;34452;50.796;4.994;2023-05-03T01:57:13;6.60;99.90
48666;DHT22;34452;50.796;4.994;2023-05-03T01:59:39;6.60;99.90
48666;DHT22;34452;50.796;4.994;2023-05-03T02:02:04;6.50;99.90
48666;DHT22;34452;50.796;4.994;2023-05-03T02:04:30;6.50;99.90
48666;DHT22;34452;50.796;4.994;2023-05-03T02:06:56;6.50;99.90
48666;DHT22;34452;50.796;4.994;2023-05-03T02:09:22;6.50;99.90
48666;DHT22;34452;50.796;4.994;2023-05-03T02:11:48;6.40;99.90
48666;DHT22;34452;50.796;4.994;2023-05-03T02:14:14;6.40;99.90
48666;DHT22;34452;50.796;4.994;2023-05-03T02:16:39;6.50;99.90
48666;DHT22;34452;50.796;4.994;2023-05-03T02:19:05;6.40;99.90
48666;DHT22;34452;50.796;4.994;2023-05-03T02:21:32;6.40;99.90
48666;DHT22;34452;50.796;4.994;2023-05-03T02:23:58;6.40;99.90
48666;DHT22;34452;50.796;4.994;2023-05-03T02:26:24;6.50;99.90
48666;DHT22;34452;50.796;4.994;2023-05-03T02:28:50;6.50;99.90
48666;DHT22;34452;50.796;4.994;2023-05-03T02:31:15;6.60;99.90
48666;DHT22;34452;50.796;4.994;2023-05-03T02:33:41;6.60;99.90
48666;DHT22;34452;50.796;4.994;2023-05-03T02:36:07;6.60;99.90
48666;DHT22;34452;50.796;4.994;2023-05-03T02:38:33;6.70;99.90
48666;DHT22;34452;50.796;4.994;2023-05-03T02:40:59;6.70;99.90
48666;DHT22;34452;50.796;4.994;2023-05-03T02:43:24;6.70;99.90
48666;DHT22;34452;50.796;4.994;2023-05-03T02:45:50;6.70;99.90
48666;DHT22;34452;50.796;4.994;2023-05-03T02:48:16;6.70;99.90
48666;DHT22;34452;50.796;4.994;2023-05-03T02:50:42;6.60;99.90
48666;DHT22;34452;50.796;4.994;2023-05-03T02:53:08;6.60;99.90
48666;DHT22;34452;50.796;4.994;2023-05-03T02:55:34;6.60;99.90
48666;DHT22;34452;50.796;4.994;2023-05-03T02:58:00;6.60;99.90
48666;DHT22;34452;50.796;4.994;2023-05-03T03:00:26;6.50;99.90
48666;DHT22;34452;50.796;4.994;2023-05-03T03:02:51;6.50;99.90
48666;DHT22;34452;50.796;4.994;2023-05-03T03:05:17;6.40;99.90
48666;DHT22;34452;50.796;4.994;2023-05-03T03:07:43;6.40;99.90
48666;DHT22;34452;50.796;4.994;2023-05-03T03:10:09;6.30;99.90
48666;DHT22;34452;50.796;4.994;2023-05-03T03:12:35;6.20;99.90
48666;DHT22;34452;50.796;4.994;2023-05-03T03:15:01;6.10;99.90
48666;DHT22;34452;50.796;4.994;2023-05-03T03:17:28;6.00;99.90
48666;DHT22;34452;50.796;4.994;2023-05-03T03:19:54;6.00;99.90
48666;DHT22;34452;50.796;4.994;2023-05-03T03:22:20;5.90;99.90
48666;DHT22;34452;50.796;4.994;2023-05-03T03:24:45;5.80;99.90
48666;DHT22;34452;50.796;4.994;2023-05-03T03:27:11;5.70;99.90
48666;DHT22;34452;50.796;4.994;2023-05-03T03:29:37;5.60;99.90
48666;DHT22;34452;50.796;4.994;2023-05-03T03:32:02;5.60;99.90
48666;DHT22;34452;50.796;4.994;2023-05-03T03:34:28;5.50;99.90
48666;DHT22;34452;50.796;4.994;2023-05-03T03:36:54;5.60;99.90
48666;DHT22;34452;50.796;4.994;2023-05-03T03:39:20;5.80;99.90
48666;DHT22;34452;50.796;4.994;2023-05-03T03:41:46;5.80;99.90
48666;DHT22;34452;50.796;4.994;2023-05-03T03:44:12;5.90;99.90
48666;DHT22;34452;50.796;4.994;2023-05-03T03:46:37;6.00;99.90
48666;DHT22;34452;50.796;4.994;2023-05-03T03:49:03;6.00;99.90
48666;DHT22;34452;50.796;4.994;2023-05-03T03:51:29;6.00;99.90
48666;DHT22;34452;50.796;4.994;2023-05-03T03:53:55;6.00;99.90
48666;DHT22;34452;50.796;4.994;2023-05-03T03:56:21;6.00;99.90
48666;DHT22;34452;50.796;4.994;2023-05-03T03:58:48;6.00;99.90
48666;DHT22;34452;50.796;4.994;2023-05-03T04:01:13;5.90;99.90
48666;DHT22;34452;50.796;4.994;2023-05-03T04:03:39;5.80;99.90
48666;DHT22;34452;50.796;4.994;2023-05-03T04:06:05;5.70;99.90
48666;DHT22;34452;50.796;4.994;2023-05-03T04:08:31;5.60;99.90
48666;DHT22;34452;50.796;4.994;2023-05-03T04:10:56;5.50;99.90
48666;DHT22;34452;50.796;4.994;2023-05-03T04:13:22;5.40;99.90
48666;DHT22;34452;50.796;4.994;2023-05-03T04:15:48;5.30;99.90
48666;DHT22;34452;50.796;4.994;2023-05-03T04:18:14;5.30;99.90
48666;DHT22;34452;50.796;4.994;2023-05-03T04:20:40;5.20;99.90
48666;DHT22;34452;50.796;4.994;2023-05-03T04:23:05;5.20;99.90
48666;DHT22;34452;50.796;4.994;2023-05-03T04:25:31;5.20;99.90
48666;DHT22;34452;50.796;4.994;2023-05-03T04:27:57;5.20;99.90
48666;DHT22;34452;50.796;4.994;2023-05-03T04:30:23;5.30;99.90
48666;DHT22;34452;50.796;4.994;2023-05-03T04:32:50;5.40;99.90
48666;DHT22;34452;50.796;4.994;2023-05-03T04:35:18;5.40;99.90
48666;DHT22;34452;50.796;4.994;2023-05-03T04:37:44;5.50;99.90
48666;DHT22;34452;50.796;4.994;2023-05-03T04:40:11;5.50;99.90
48666;DHT22;34452;50.796;4.994;2023-05-03T04:42:37;5.40;99.90
48666;DHT22;34452;50.796;4.994;2023-05-03T04:45:03;5.40;99.90
48666;DHT22;34452;50.796;4.994;2023-05-03T04:47:32;5.40;99.90
48666;DHT22;34452;50.796;4.994;2023-05-03T04:49:57;5.30;99.90
48666;DHT22;34452;50.796;4.994;2023-05-03T04:52:24;5.30;99.90
48666;DHT22;34452;50.796;4.994;2023-05-03T04:54:51;5.40;99.90
48666;DHT22;34452;50.796;4.994;2023-05-03T04:57:17;5.40;99.90
48666;DHT22;34452;50.796;4.994;2023-05-03T04:59:42;5.50;99.90
48666;DHT22;34452;50.796;4.994;2023-05-03T05:02:09;5.50;99.90
48666;DHT22;34452;50.796;4.994;2023-05-03T05:04:34;5.60;99.90
48666;DHT22;34452;50.796;4.994;2023-05-03T05:07:00;5.60;99.90
48666;DHT22;34452;50.796;4.994;2023-05-03T05:09:27;5.60;99.90
48666;DHT22;34452;50.796;4.994;2023-05-03T05:11:53;5.70;99.90
48666;DHT22;34452;50.796;4.994;2023-05-03T05:14:20;5.80;99.90
48666;DHT22;34452;50.796;4.994;2023-05-03T05:16:45;5.80;99.90
48666;DHT22;34452;50.796;4.994;2023-05-03T05:19:11;5.90;99.90
48666;DHT22;34452;50.796;4.994;2023-05-03T05:21:38;5.90;99.90
48666;DHT22;34452;50.796;4.994;2023-05-03T05:24:04;6.00;99.90
48666;DHT22;34452;50.796;4.994;2023-05-03T05:26:30;6.00;99.90
48666;DHT22;34452;50.796;4.994;2023-05-03T05:28:56;6.10;99.90
48666;DHT22;34452;50.796;4.994;2023-05-03T05:31:22;6.10;99.90
48666;DHT22;34452;50.796;4.994;2023-05-03T05:33:48;6.20;99.90
48666;DHT22;34452;50.796;4.994;2023-05-03T05:36:14;6.30;99.90
48666;DHT22;34452;50.796;4.994;2023-05-03T05:38:40;6.30;99.90
48666;DHT22;34452;50.796;4.994;2023-05-03T05:41:06;6.50;99.90
48666;DHT22;34452;50.796;4.994;2023-05-03T05:43:31;6.50;99.90
48666;DHT22;34452;50.796;4.994;2023-05-03T05:45:57;6.60;99.90
48666;DHT22;34452;50.796;4.994;2023-05-03T05:48:23;6.70;99.90
48666;DHT22;34452;50.796;4.994;2023-05-03T05:50:49;6.70;99.90
48666;DHT22;34452;50.796;4.994;2023-05-03T05:53:15;6.80;99.90
48666;DHT22;34452;50.796;4.994;2023-05-03T05:55:41;6.90;99.90
48666;DHT22;34452;50.796;4.994;2023-05-03T05:58:06;7.00;99.90
48666;DHT22;34452;50.796;4.994;2023-05-03T06:00:32;7.00;99.90
48666;DHT22;34452;50.796;4.994;2023-05-03T06:02:58;7.00;99.90
48666;DHT22;34452;50.796;4.994;2023-05-03T06:05:23;7.10;99.90
48666;DHT22;34452;50.796;4.994;2023-05-03T06:07:49;7.20;99.90
48666;DHT22;34452;50.796;4.994;2023-05-03T06:10:15;7.30;99.90
48666;DHT22;34452;50.796;4.994;2023-05-03T06:12:41;7.40;99.90
48666;DHT22;34452;50.796;4.994;2023-05-03T06:15:07;7.40;99.90
48666;DHT22;34452;50.796;4.994;2023-05-03T06:17:34;7.60;99.90
48666;DHT22;34452;50.796;4.994;2023-05-03T06:20:00;7.60;99.90
48666;DHT22;34452;50.796;4.994;2023-05-03T06:22:26;7.70;99.90
48666;DHT22;34452;50.796;4.994;2023-05-03T06:24:52;7.80;99.90
48666;DHT22;34452;50.796;4.994;2023-05-03T06:27:17;7.90;99.90
48666;DHT22;34452;50.796;4.994;2023-05-03T06:29:43;8.00;99.90
48666;DHT22;34452;50.796;4.994;2023-05-03T06:32:09;8.10;99.90
48666;DHT22;34452;50.796;4.994;2023-05-03T06:34:35;8.20;99.90
48666;DHT22;34452;50.796;4.994;2023-05-03T06:37:02;8.20;99.90
48666;DHT22;34452;50.796;4.994;2023-05-03T06:39:28;8.30;99.90
48666;DHT22;34452;50.796;4.994;2023-05-03T06:41:53;8.30;99.90
48666;DHT22;34452;50.796;4.994;2023-05-03T06:44:19;8.30;99.90
48666;DHT22;34452;50.796;4.994;2023-05-03T06:46:45;8.40;99.90
48666;DHT22;34452;50.796;4.994;2023-05-03T06:49:11;8.50;99.90
48666;DHT22;34452;50.796;4.994;2023-05-03T06:51:36;8.60;99.90
48666;DHT22;34452;50.796;4.994;2023-05-03T06:54:02;8.60;99.90
48666;DHT22;34452;50.796;4.994;2023-05-03T06:56:34;8.70;99.90
48666;DHT22;34452;50.796;4.994;2023-05-03T06:59:01;8.70;99.90
48666;DHT22;34452;50.796;4.994;2023-05-03T07:01:27;8.80;99.90
48666;DHT22;34452;50.796;4.994;2023-05-03T07:03:52;8.90;99.90
48666;DHT22;34452;50.796;4.994;2023-05-03T07:06:18;9.00;99.90
48666;DHT22;34452;50.796;4.994;2023-05-03T07:08:44;9.10;99.90
48666;DHT22;34452;50.796;4.994;2023-05-03T07:11:10;9.20;99.90
48666;DHT22;34452;50.796;4.994;2023-05-03T07:13:36;9.30;99.90
48666;DHT22;34452;50.796;4.994;2023-05-03T07:16:01;9.40;99.90
48666;DHT22;34452;50.796;4.994;2023-05-03T07:18:27;9.40;99.90
48666;DHT22;34452;50.796;4.994;2023-05-03T07:20:53;9.50;99.90
48666;DHT22;34452;50.796;4.994;2023-05-03T07:23:19;9.60;99.90
48666;DHT22;34452;50.796;4.994;2023-05-03T07:25:45;9.60;99.90
48666;DHT22;34452;50.796;4.994;2023-05-03T07:28:11;9.70;99.90
48666;DHT22;34452;50.796;4.994;2023-05-03T07:30:36;9.80;99.90
48666;DHT22;34452;50.796;4.994;2023-05-03T07:33:02;9.80;99.90
48666;DHT22;34452;50.796;4.994;2023-05-03T07:35:28;9.90;99.90
48666;DHT22;34452;50.796;4.994;2023-05-03T07:37:55;9.90;99.90
48666;DHT22;34452;50.796;4.994;2023-05-03T07:40:21;10.00;99.90
48666;DHT22;34452;50.796;4.994;2023-05-03T07:42:47;10.00;99.90
48666;DHT22;34452;50.796;4.994;2023-05-03T07:45:13;10.10;99.90
48666;DHT22;34452;50.796;4.994;2023-05-03T07:47:39;10.20;99.90
48666;DHT22;34452;50.796;4.994;2023-05-03T07:50:06;10.30;99.90
48666;DHT22;34452;50.796;4.994;2023-05-03T07:52:50;10.40;99.90
48666;DHT22;34452;50.796;4.994;2023-05-03T07:55:17;10.50;99.90
48666;DHT22;34452;50.796;4.994;2023-05-03T07:57:43;10.60;99.90
48666;DHT22;34452;50.796;4.994;2023-05-03T08:00:10;10.70;99.90
48666;DHT22;34452;50.796;4.994;2023-05-03T08:02:37;10.70;99.90
48666;DHT22;34452;50.796;4.994;2023-05-03T08:05:03;10.80;99.90
48666;DHT22;34452;50.796;4.994;2023-05-03T08:07:31;10.80;99.90
48666;DHT22;34452;50.796;4.994;2023-05-03T08:09:57;10.90;99.90
48666;DHT22;34452;50.796;4.994;2023-05-03T08:12:25;10.90;99.90
48666;DHT22;34452;50.796;4.994;2023-05-03T08:14:52;11.00;99.90
48666;DHT22;34452;50.796;4.994;2023-05-03T08:17:18;11.00;99.90
48666;DHT22;34452;50.796;4.994;2023-05-03T08:19:44;11.10;99.90
48666;DHT22;34452;50.796;4.994;2023-05-03T08:22:09;11.20;99.90
48666;DHT22;34452;50.796;4.994;2023-05-03T08:24:37;11.30;99.90
48666;DHT22;34452;50.796;4.994;2023-05-03T08:27:03;11.30;99.90
48666;DHT22;34452;50.796;4.994;2023-05-03T08:29:30;11.30;99.90
48666;DHT22;34452;50.796;4.994;2023-05-03T08:31:56;11.40;99.90
48666;DHT22;34452;50.796;4.994;2023-05-03T08:34:24;11.50;99.90
48666;DHT22;34452;50.796;4.994;2023-05-03T08:36:50;11.50;99.90
48666;DHT22;34452;50.796;4.994;2023-05-03T08:39:16;11.60;99.90
48666;DHT22;34452;50.796;4.994;2023-05-03T08:41:43;11.70;99.90
48666;DHT22;34452;50.796;4.994;2023-05-03T08:44:11;11.80;99.90
48666;DHT22;34452;50.796;4.994;2023-05-03T08:46:37;11.90;99.90
48666;DHT22;34452;50.796;4.994;2023-05-03T08:49:03;12.00;99.90
48666;DHT22;34452;50.796;4.994;2023-05-03T08:51:33;12.10;99.90
48666;DHT22;34452;50.796;4.994;2023-05-03T08:53:59;12.20;99.90
48666;DHT22;34452;50.796;4.994;2023-05-03T08:56:29;12.30;99.40
48666;DHT22;34452;50.796;4.994;2023-05-03T08:58:56;12.40;98.40
48666;DHT22;34452;50.796;4.994;2023-05-03T09:01:29;12.40;97.70
48666;DHT22;34452;50.796;4.994;2023-05-03T09:03:55;12.50;96.60
48666;DHT22;34452;50.796;4.994;2023-05-03T09:06:22;12.60;95.70
48666;DHT22;34452;50.796;4.994;2023-05-03T09:09:30;12.80;96.20
48666;DHT22;34452;50.796;4.994;2023-05-03T09:11:56;13.00;95.40
48666;DHT22;34452;50.796;4.994;2023-05-03T09:14:22;13.00;94.40
48666;DHT22;34452;50.796;4.994;2023-05-03T09:16:48;13.10;94.10
48666;DHT22;34452;50.796;4.994;2023-05-03T09:19:14;13.00;94.00
48666;DHT22;34452;50.796;4.994;2023-05-03T09:21:41;13.10;93.50
48666;DHT22;34452;50.796;4.994;2023-05-03T09:24:24;13.10;91.30
48666;DHT22;34452;50.796;4.994;2023-05-03T09:26:50;13.10;92.70
48666;DHT22;34452;50.796;4.994;2023-05-03T09:29:29;13.20;92.90
48666;DHT22;34452;50.796;4.994;2023-05-03T09:32:25;13.20;91.50
48666;DHT22;34452;50.796;4.994;2023-05-03T09:34:53;13.40;92.90
48666;DHT22;34452;50.796;4.994;2023-05-03T09:37:35;13.40;90.80
48666;DHT22;34452;50.796;4.994;2023-05-03T09:40:04;13.40;91.10
48666;DHT22;34452;50.796;4.994;2023-05-03T09:42:32;13.60;90.50
48666;DHT22;34452;50.796;4.994;2023-05-03T09:44:58;13.80;90.30
48666;DHT22;34452;50.796;4.994;2023-05-03T09:47:23;13.90;89.40
48666;DHT22;34452;50.796;4.994;2023-05-03T09:49:49;14.00;87.70
48666;DHT22;34452;50.796;4.994;2023-05-03T09:52:15;13.80;88.00
48666;DHT22;34452;50.796;4.994;2023-05-03T09:54:41;13.70;88.70
48666;DHT22;34452;50.796;4.994;2023-05-03T09:57:08;13.80;88.10
48666;DHT22;34452;50.796;4.994;2023-05-03T09:59:36;13.80;89.00
48666;DHT22;34452;50.796;4.994;2023-05-03T10:02:04;14.10;87.90
48666;DHT22;34452;50.796;4.994;2023-05-03T10:04:39;14.20;86.80
48666;DHT22;34452;50.796;4.994;2023-05-03T10:07:10;14.20;85.10
48666;DHT22;34452;50.796;4.994;2023-05-03T10:12:15;14.50;85.90
48666;DHT22;34452;50.796;4.994;2023-05-03T10:14:44;14.60;83.50
48666;DHT22;34452;50.796;4.994;2023-05-03T10:22:09;14.80;83.10
48666;DHT22;34452;50.796;4.994;2023-05-03T10:27:35;15.00;83.60
48666;DHT22;34452;50.796;4.994;2023-05-03T10:30:02;15.20;81.70
48666;DHT22;34452;50.796;4.994;2023-05-03T10:35:13;15.20;78.30
48666;DHT22;34452;50.796;4.994;2023-05-03T10:37:40;15.20;77.20
48666;DHT22;34452;50.796;4.994;2023-05-03T10:42:35;15.50;77.30
48666;DHT22;34452;50.796;4.994;2023-05-03T10:45:01;15.70;77.00
48666;DHT22;34452;50.796;4.994;2023-05-03T10:47:28;15.80;75.10
48666;DHT22;34452;50.796;4.994;2023-05-03T10:55:15;16.10;72.50
48666;DHT22;34452;50.796;4.994;2023-05-03T10:57:43;16.30;73.30
48666;DHT22;34452;50.796;4.994;2023-05-03T11:05:18;16.50;69.60
48666;DHT22;34452;50.796;4.994;2023-05-03T11:07:44;16.40;71.40
48666;DHT22;34452;50.796;4.994;2023-05-03T11:10:28;16.60;70.50
48666;DHT22;34452;50.796;4.994;2023-05-03T11:12:54;16.70;68.70
48666;DHT22;34452;50.796;4.994;2023-05-03T11:15:20;16.90;69.70
48666;DHT22;34452;50.796;4.994;2023-05-03T11:17:46;17.00;68.70
48666;DHT22;34452;50.796;4.994;2023-05-03T11:20:12;17.10;68.80
48666;DHT22;34452;50.796;4.994;2023-05-03T11:22:38;17.00;69.60
48666;DHT22;34452;50.796;4.994;2023-05-03T11:25:04;17.20;68.80
48666;DHT22;34452;50.796;4.994;2023-05-03T11:27:30;17.00;68.30
48666;DHT22;34452;50.796;4.994;2023-05-03T11:29:55;17.00;70.20
48666;DHT22;34452;50.796;4.994;2023-05-03T11:32:26;17.10;68.90
48666;DHT22;34452;50.796;4.994;2023-05-03T11:34:52;17.20;69.20
48666;DHT22;34452;50.796;4.994;2023-05-03T11:37:18;17.40;68.00
48666;DHT22;34452;50.796;4.994;2023-05-03T11:39:44;17.50;67.30
48666;DHT22;34452;50.796;4.994;2023-05-03T11:42:12;17.80;66.30
48666;DHT22;34452;50.796;4.994;2023-05-03T11:44:38;17.90;65.50
48666;DHT22;34452;50.796;4.994;2023-05-03T11:47:04;17.90;65.30
48666;DHT22;34452;50.796;4.994;2023-05-03T11:49:29;17.40;67.00
48666;DHT22;34452;50.796;4.994;2023-05-03T11:51:55;17.60;65.50
48666;DHT22;34452;50.796;4.994;2023-05-03T11:54:22;17.90;64.10
48666;DHT22;34452;50.796;4.994;2023-05-03T11:56:49;18.10;62.50
48666;DHT22;34452;50.796;4.994;2023-05-03T11:59:15;18.40;62.70
48666;DHT22;34452;50.796;4.994;2023-05-03T12:01:41;18.20;62.20
48666;DHT22;34452;50.796;4.994;2023-05-03T12:04:07;18.20;64.20
48666;DHT22;34452;50.796;4.994;2023-05-03T12:06:35;18.30;64.50
48666;DHT22;34452;50.796;4.994;2023-05-03T12:09:02;18.20;61.50
48666;DHT22;34452;50.796;4.994;2023-05-03T12:11:28;18.40;65.80
48666;DHT22;34452;50.796;4.994;2023-05-03T12:14:25;18.40;62.70
48666;DHT22;34452;50.796;4.994;2023-05-03T12:16:52;18.70;60.60
48666;DHT22;34452;50.796;4.994;2023-05-03T12:19:37;18.70;59.90
48666;DHT22;34452;50.796;4.994;2023-05-03T12:22:02;18.70;60.20
48666;DHT22;34452;50.796;4.994;2023-05-03T12:24:28;18.70;59.00
48666;DHT22;34452;50.796;4.994;2023-05-03T12:26:54;18.60;60.90
48666;DHT22;34452;50.796;4.994;2023-05-03T12:29:19;18.60;60.40
48666;DHT22;34452;50.796;4.994;2023-05-03T12:31:45;18.10;60.80
48666;DHT22;34452;50.796;4.994;2023-05-03T12:34:12;18.50;61.50
48666;DHT22;34452;50.796;4.994;2023-05-03T12:36:38;18.80;60.50
48666;DHT22;34452;50.796;4.994;2023-05-03T12:39:04;19.00;60.40
48666;DHT22;34452;50.796;4.994;2023-05-03T12:41:31;19.00;61.70
48666;DHT22;34452;50.796;4.994;2023-05-03T12:43:57;19.20;61.30
48666;DHT22;34452;50.796;4.994;2023-05-03T12:46:23;19.00;57.70
48666;DHT22;34452;50.796;4.994;2023-05-03T12:48:50;18.90;58.40
48666;DHT22;34452;50.796;4.994;2023-05-03T12:51:16;18.70;59.40
48666;DHT22;34452;50.796;4.994;2023-05-03T12:53:43;18.50;61.10
48666;DHT22;34452;50.796;4.994;2023-05-03T12:56:09;18.20;61.20
48666;DHT22;34452;50.796;4.994;2023-05-03T12:58:35;18.00;65.10
48666;DHT22;34452;50.796;4.994;2023-05-03T13:01:01;18.10;58.20
48666;DHT22;34452;50.796;4.994;2023-05-03T13:03:27;18.40;62.40
48666;DHT22;34452;50.796;4.994;2023-05-03T13:05:53;18.50;58.30
48666;DHT22;34452;50.796;4.994;2023-05-03T13:08:18;18.80;60.50
48666;DHT22;34452;50.796;4.994;2023-05-03T13:10:44;19.10;58.60
48666;DHT22;34452;50.796;4.994;2023-05-03T13:13:10;19.50;58.20
48666;DHT22;34452;50.796;4.994;2023-05-03T13:15:36;19.70;57.80
48666;DHT22;34452;50.796;4.994;2023-05-03T13:18:04;19.40;56.80
48666;DHT22;34452;50.796;4.994;2023-05-03T13:20:31;19.30;56.80
48666;DHT22;34452;50.796;4.994;2023-05-03T13:22:57;19.20;59.00
48666;DHT22;34452;50.796;4.994;2023-05-03T13:25:23;19.40;57.80
48666;DHT22;34452;50.796;4.994;2023-05-03T13:27:49;19.60;57.70
48666;DHT22;34452;50.796;4.994;2023-05-03T13:30:20;19.60;56.00
48666;DHT22;34452;50.796;4.994;2023-05-03T13:32:46;19.80;57.70
48666;DHT22;34452;50.796;4.994;2023-05-03T13:35:12;19.80;57.20
48666;DHT22;34452;50.796;4.994;2023-05-03T13:37:38;19.50;56.10
48666;DHT22;34452;50.796;4.994;2023-05-03T13:40:04;19.50;57.40
48666;DHT22;34452;50.796;4.994;2023-05-03T13:42:30;19.80;58.40
48666;DHT22;34452;50.796;4.994;2023-05-03T13:44:55;20.10;57.00
48666;DHT22;34452;50.796;4.994;2023-05-03T13:47:21;20.20;56.50
48666;DHT22;34452;50.796;4.994;2023-05-03T13:49:47;20.40;56.00
48666;DHT22;34452;50.796;4.994;2023-05-03T13:52:13;19.40;55.90
48666;DHT22;34452;50.796;4.994;2023-05-03T13:54:39;19.50;56.00
48666;DHT22;34452;50.796;4.994;2023-05-03T13:57:06;19.90;56.20
48666;DHT22;34452;50.796;4.994;2023-05-03T13:59:32;20.30;54.50
48666;DHT22;34452;50.796;4.994;2023-05-03T14:01:58;20.20;51.40
48666;DHT22;34452;50.796;4.994;2023-05-03T14:04:25;20.30;54.20
48666;DHT22;34452;50.796;4.994;2023-05-03T14:06:51;20.40;54.20
48666;DHT22;34452;50.796;4.994;2023-05-03T14:09:17;20.60;55.10
48666;DHT22;34452;50.796;4.994;2023-05-03T14:11:43;20.80;53.30
48666;DHT22;34452;50.796;4.994;2023-05-03T14:14:08;21.00;53.70
48666;DHT22;34452;50.796;4.994;2023-05-03T14:16:34;21.30;53.40
48666;DHT22;34452;50.796;4.994;2023-05-03T14:19:00;21.40;54.50
48666;DHT22;34452;50.796;4.994;2023-05-03T14:21:27;21.50;53.90
48666;DHT22;34452;50.796;4.994;2023-05-03T14:23:53;21.50;53.00
48666;DHT22;34452;50.796;4.994;2023-05-03T14:26:19;21.40;50.60
48666;DHT22;34452;50.796;4.994;2023-05-03T14:28:46;21.40;53.20
48666;DHT22;34452;50.796;4.994;2023-05-03T14:31:12;21.40;52.70
48666;DHT22;34452;50.796;4.994;2023-05-03T14:33:38;21.50;52.70
48666;DHT22;34452;50.796;4.994;2023-05-03T14:36:05;21.40;53.30
48666;DHT22;34452;50.796;4.994;2023-05-03T14:38:33;21.60;52.90
48666;DHT22;34452;50.796;4.994;2023-05-03T14:40:59;21.50;50.50
48666;DHT22;34452;50.796;4.994;2023-05-03T14:43:24;21.60;51.60
48666;DHT22;34452;50.796;4.994;2023-05-03T14:45:50;21.80;51.50
48666;DHT22;34452;50.796;4.994;2023-05-03T14:48:16;22.00;51.70
48666;DHT22;34452;50.796;4.994;2023-05-03T14:51:00;21.80;51.60
48666;DHT22;34452;50.796;4.994;2023-05-03T14:53:26;21.70;51.80
48666;DHT22;34452;50.796;4.994;2023-05-03T14:55:53;21.50;49.80
48666;DHT22;34452;50.796;4.994;2023-05-03T14:58:18;21.60;51.40
48666;DHT22;34452;50.796;4.994;2023-05-03T15:00:44;21.50;50.00
48666;DHT22;34452;50.796;4.994;2023-05-03T15:03:10;21.20;48.80
48666;DHT22;34452;50.796;4.994;2023-05-03T15:05:48;21.40;51.20
48666;DHT22;34452;50.796;4.994;2023-05-03T15:08:16;21.70;50.30
48666;DHT22;34452;50.796;4.994;2023-05-03T15:10:42;22.00;51.20
48666;DHT22;34452;50.796;4.994;2023-05-03T15:13:11;21.90;51.80
48666;DHT22;34452;50.796;4.994;2023-05-03T15:15:38;22.20;49.20
48666;DHT22;34452;50.796;4.994;2023-05-03T15:18:04;22.50;48.90
48666;DHT22;34452;50.796;4.994;2023-05-03T15:20:30;22.60;49.40
48666;DHT22;34452;50.796;4.994;2023-05-03T15:22:56;22.90;47.60
48666;DHT22;34452;50.796;4.994;2023-05-03T15:25:22;22.90;47.90
48666;DHT22;34452;50.796;4.994;2023-05-03T15:27:49;23.00;47.70
48666;DHT22;34452;50.796;4.994;2023-05-03T15:30:15;22.90;47.40
48666;DHT22;34452;50.796;4.994;2023-05-03T15:32:42;23.20;47.20
48666;DHT22;34452;50.796;4.994;2023-05-03T15:35:08;23.50;47.20
48666;DHT22;34452;50.796;4.994;2023-05-03T15:37:35;23.70;45.70
48666;DHT22;34452;50.796;4.994;2023-05-03T15:40:03;23.90;45.20
48666;DHT22;34452;50.796;4.994;2023-05-03T15:42:29;23.90;44.70
48666;DHT22;34452;50.796;4.994;2023-05-03T15:44:56;24.40;43.60
48666;DHT22;34452;50.796;4.994;2023-05-03T15:47:22;24.50;43.40
48666;DHT22;34452;50.796;4.994;2023-05-03T15:49:48;25.10;43.10
48666;DHT22;34452;50.796;4.994;2023-05-03T15:52:14;25.60;42.10
48666;DHT22;34452;50.796;4.994;2023-05-03T15:54:40;26.20;39.60
48666;DHT22;34452;50.796;4.994;2023-05-03T15:57:06;26.60;39.10
48666;DHT22;34452;50.796;4.994;2023-05-03T15:59:32;26.90;40.00
48666;DHT22;34452;50.796;4.994;2023-05-03T16:01:57;27.10;39.40
48666;DHT22;34452;50.796;4.994;2023-05-03T16:04:23;27.20;37.80
48666;DHT22;34452;50.796;4.994;2023-05-03T16:06:49;27.60;37.80
48666;DHT22;34452;50.796;4.994;2023-05-03T16:09:15;27.90;35.70
48666;DHT22;34452;50.796;4.994;2023-05-03T16:11:43;27.40;34.30
48666;DHT22;34452;50.796;4.994;2023-05-03T16:14:09;26.90;35.30